sensor_id;sensor_type;location;lat;lon;timestamp;P1;durP1;ratioP1;P2;durP2;ratioP2
18013;SDS011;9132;47.946;10.394;2022-07-30T00:02:05;3.15;;;2.10;;
18013;SDS011;9132;47.946;10.394;2022-07-30T00:04:32;2.65;;;2.45;;
18013;SDS011;9132;47.946;10.394;2022-07-30T00:06:59;2.40;;;2.20;;
18013;SDS011;9132;47.946;10.394;2022-07-30T00:09:25;2.40;;;2.20;;
18013;SDS011;9132;47.946;10.394;2022-07-30T00:11:51;2.63;;;2.40;;
18013;SDS011;9132;47.946;10.394;2022-07-30T00:14:17;2.55;;;2.35;;
18013;SDS011;9132;47.946;10.394;2022-07-30T00:16:44;2.53;;;2.33;;
18013;SDS011;9132;47.946;10.394;2022-07-30T00:19:10;2.45;;;2.25;;
18013;SDS011;9132;47.946;10.394;2022-07-30T00:21:38;2.30;;;2.10;;
18013;SDS011;9132;47.946;10.394;2022-07-30T00:24:04;2.40;;;2.20;;
18013;SDS011;9132;47.946;10.394;2022-07-30T00:26:32;2.60;;;2.00;;
18013;SDS011;9132;47.946;10.394;2022-07-30T00:28:59;2.40;;;2.25;;
18013;SDS011;9132;47.946;10.394;2022-07-30T00:31:25;2.70;;;2.50;;
18013;SDS011;9132;47.946;10.394;2022-07-30T00:33:51;2.67;;;2.47;;
18013;SDS011;9132;47.946;10.394;2022-07-30T00:36:18;4.43;;;2.45;;
18013;SDS011;9132;47.946;10.394;2022-07-30T00:38:45;2.47;;;2.28;;
18013;SDS011;9132;47.946;10.394;2022-07-30T00:41:12;3.25;;;2.13;;
18013;SDS011;9132;47.946;10.394;2022-07-30T00:43:38;2.50;;;2.30;;
18013;SDS011;9132;47.946;10.394;2022-07-30T00:46:04;2.20;;;2.00;;
18013;SDS011;9132;47.946;10.394;2022-07-30T00:48:31;2.80;;;2.22;;
18013;SDS011;9132;47.946;10.394;2022-07-30T00:50:57;2.78;;;2.55;;
18013;SDS011;9132;47.946;10.394;2022-07-30T00:53:23;2.95;;;2.65;;
18013;SDS011;9132;47.946;10.394;2022-07-30T00:55:51;2.72;;;2.50;;
18013;SDS011;9132;47.946;10.394;2022-07-30T00:58:17;2.50;;;2.30;;
18013;SDS011;9132;47.946;10.394;2022-07-30T01:00:43;3.03;;;2.60;;
18013;SDS011;9132;47.946;10.394;2022-07-30T01:03:10;4.10;;;2.72;;
18013;SDS011;9132;47.946;10.394;2022-07-30T01:05:36;2.97;;;2.50;;
18013;SDS011;9132;47.946;10.394;2022-07-30T01:08:02;2.90;;;2.63;;
18013;SDS011;9132;47.946;10.394;2022-07-30T01:10:29;2.60;;;2.33;;
18013;SDS011;9132;47.946;10.394;2022-07-30T01:12:56;3.70;;;3.00;;
18013;SDS011;9132;47.946;10.394;2022-07-30T01:15:23;2.58;;;2.38;;
18013;SDS011;9132;47.946;10.394;2022-07-30T01:17:50;3.25;;;2.20;;
18013;SDS011;9132;47.946;10.394;2022-07-30T01:20:17;2.92;;;2.42;;
18013;SDS011;9132;47.946;10.394;2022-07-30T01:22:47;3.55;;;2.40;;
18013;SDS011;9132;47.946;10.394;2022-07-30T01:25:16;2.50;;;2.22;;
18013;SDS011;9132;47.946;10.394;2022-07-30T01:27:46;2.33;;;2.13;;
18013;SDS011;9132;47.946;10.394;2022-07-30T01:30:14;2.78;;;2.42;;
18013;SDS011;9132;47.946;10.394;2022-07-30T01:32:41;2.67;;;2.35;;
18013;SDS011;9132;47.946;10.394;2022-07-30T01:35:09;2.92;;;2.30;;
18013;SDS011;9132;47.946;10.394;2022-07-30T01:37:36;3.35;;;2.45;;
18013;SDS011;9132;47.946;10.394;2022-07-30T01:40:04;2.50;;;2.28;;
18013;SDS011;9132;47.946;10.394;2022-07-30T01:42:30;4.25;;;2.30;;
18013;SDS011;9132;47.946;10.394;2022-07-30T01:44:59;3.60;;;2.33;;
18013;SDS011;9132;47.946;10.394;2022-07-30T01:47:25;3.83;;;2.50;;
18013;SDS011;9132;47.946;10.394;2022-07-30T01:49:52;2.60;;;2.40;;
18013;SDS011;9132;47.946;10.394;2022-07-30T01:52:19;2.90;;;2.60;;
18013;SDS011;9132;47.946;10.394;2022-07-30T01:54:47;4.30;;;2.05;;
18013;SDS011;9132;47.946;10.394;2022-07-30T01:57:15;3.17;;;2.70;;
18013;SDS011;9132;47.946;10.394;2022-07-30T01:59:42;2.40;;;2.20;;
18013;SDS011;9132;47.946;10.394;2022-07-30T02:02:12;3.47;;;3.00;;
18013;SDS011;9132;47.946;10.394;2022-07-30T02:04:38;2.95;;;2.40;;
18013;SDS011;9132;47.946;10.394;2022-07-30T02:07:05;2.25;;;2.15;;
18013;SDS011;9132;47.946;10.394;2022-07-30T02:09:37;2.33;;;2.17;;
18013;SDS011;9132;47.946;10.394;2022-07-30T02:12:06;2.85;;;2.65;;
18013;SDS011;9132;47.946;10.394;2022-07-30T02:14:55;3.17;;;2.88;;
18013;SDS011;9132;47.946;10.394;2022-07-30T02:17:27;2.72;;;2.53;;
18013;SDS011;9132;47.946;10.394;2022-07-30T02:19:54;3.50;;;2.58;;
18013;SDS011;9132;47.946;10.394;2022-07-30T02:22:22;5.55;;;2.95;;
18013;SDS011;9132;47.946;10.394;2022-07-30T02:24:48;3.50;;;2.60;;
18013;SDS011;9132;47.946;10.394;2022-07-30T02:27:16;2.92;;;2.53;;
18013;SDS011;9132;47.946;10.394;2022-07-30T02:29:43;2.80;;;2.55;;
18013;SDS011;9132;47.946;10.394;2022-07-30T02:32:11;3.05;;;2.60;;
18013;SDS011;9132;47.946;10.394;2022-07-30T02:34:40;2.63;;;2.25;;
18013;SDS011;9132;47.946;10.394;2022-07-30T02:37:07;2.60;;;2.40;;
18013;SDS011;9132;47.946;10.394;2022-07-30T02:39:34;3.53;;;2.63;;
18013;SDS011;9132;47.946;10.394;2022-07-30T02:42:02;2.85;;;2.30;;
18013;SDS011;9132;47.946;10.394;2022-07-30T02:44:28;2.65;;;2.40;;
18013;SDS011;9132;47.946;10.394;2022-07-30T02:46:56;3.70;;;2.47;;
18013;SDS011;9132;47.946;10.394;2022-07-30T02:49:22;3.97;;;2.42;;
18013;SDS011;9132;47.946;10.394;2022-07-30T02:51:50;2.75;;;2.55;;
18013;SDS011;9132;47.946;10.394;2022-07-30T02:54:18;3.00;;;2.70;;
18013;SDS011;9132;47.946;10.394;2022-07-30T02:56:45;2.95;;;2.65;;
18013;SDS011;9132;47.946;10.394;2022-07-30T02:59:11;3.63;;;2.55;;
18013;SDS011;9132;47.946;10.394;2022-07-30T03:01:38;5.07;;;2.50;;
18013;SDS011;9132;47.946;10.394;2022-07-30T03:04:06;3.33;;;2.60;;
18013;SDS011;9132;47.946;10.394;2022-07-30T03:06:32;2.57;;;2.37;;
18013;SDS011;9132;47.946;10.394;2022-07-30T03:09:01;2.93;;;2.70;;
18013;SDS011;9132;47.946;10.394;2022-07-30T03:11:28;4.15;;;2.80;;
18013;SDS011;9132;47.946;10.394;2022-07-30T03:13:55;2.53;;;2.40;;
18013;SDS011;9132;47.946;10.394;2022-07-30T03:16:22;2.55;;;2.25;;
18013;SDS011;9132;47.946;10.394;2022-07-30T03:18:49;3.25;;;2.60;;
18013;SDS011;9132;47.946;10.394;2022-07-30T03:21:18;2.95;;;2.65;;
18013;SDS011;9132;47.946;10.394;2022-07-30T03:23:45;3.17;;;2.58;;
18013;SDS011;9132;47.946;10.394;2022-07-30T03:26:13;3.00;;;2.58;;
18013;SDS011;9132;47.946;10.394;2022-07-30T03:28:41;3.45;;;2.75;;
18013;SDS011;9132;47.946;10.394;2022-07-30T03:31:07;3.10;;;2.50;;
18013;SDS011;9132;47.946;10.394;2022-07-30T03:33:35;2.50;;;2.30;;
18013;SDS011;9132;47.946;10.394;2022-07-30T03:36:02;2.50;;;2.30;;
18013;SDS011;9132;47.946;10.394;2022-07-30T03:38:28;2.70;;;2.50;;
18013;SDS011;9132;47.946;10.394;2022-07-30T03:40:55;2.80;;;2.60;;
18013;SDS011;9132;47.946;10.394;2022-07-30T03:43:24;2.65;;;2.45;;
18013;SDS011;9132;47.946;10.394;2022-07-30T03:45:51;2.75;;;2.50;;
18013;SDS011;9132;47.946;10.394;2022-07-30T03:48:18;2.78;;;2.58;;
18013;SDS011;9132;47.946;10.394;2022-07-30T03:50:45;3.30;;;2.67;;
18013;SDS011;9132;47.946;10.394;2022-07-30T03:53:11;2.83;;;2.50;;
18013;SDS011;9132;47.946;10.394;2022-07-30T03:55:38;2.80;;;2.60;;
18013;SDS011;9132;47.946;10.394;2022-07-30T03:58:05;3.00;;;2.60;;
18013;SDS011;9132;47.946;10.394;2022-07-30T04:00:32;3.40;;;2.50;;
18013;SDS011;9132;47.946;10.394;2022-07-30T04:02:59;2.58;;;2.38;;
18013;SDS011;9132;47.946;10.394;2022-07-30T04:05:25;3.03;;;2.72;;
18013;SDS011;9132;47.946;10.394;2022-07-30T04:07:52;3.17;;;2.40;;
18013;SDS011;9132;47.946;10.394;2022-07-30T04:10:18;2.97;;;2.67;;
18013;SDS011;9132;47.946;10.394;2022-07-30T04:12:44;3.73;;;2.60;;
18013;SDS011;9132;47.946;10.394;2022-07-30T04:15:11;2.78;;;2.55;;
18013;SDS011;9132;47.946;10.394;2022-07-30T04:17:40;2.95;;;2.70;;
18013;SDS011;9132;47.946;10.394;2022-07-30T04:20:08;4.22;;;2.80;;
18013;SDS011;9132;47.946;10.394;2022-07-30T04:22:35;2.90;;;2.60;;
18013;SDS011;9132;47.946;10.394;2022-07-30T04:25:03;3.00;;;2.70;;
18013;SDS011;9132;47.946;10.394;2022-07-30T04:27:30;3.00;;;2.80;;
18013;SDS011;9132;47.946;10.394;2022-07-30T04:29:56;4.00;;;3.00;;
18013;SDS011;9132;47.946;10.394;2022-07-30T04:32:23;3.42;;;3.00;;
18013;SDS011;9132;47.946;10.394;2022-07-30T04:34:52;3.08;;;2.80;;
18013;SDS011;9132;47.946;10.394;2022-07-30T04:37:19;3.00;;;2.70;;
18013;SDS011;9132;47.946;10.394;2022-07-30T04:39:46;3.28;;;2.97;;
18013;SDS011;9132;47.946;10.394;2022-07-30T04:42:14;3.10;;;2.80;;
18013;SDS011;9132;47.946;10.394;2022-07-30T04:44:40;3.10;;;2.85;;
18013;SDS011;9132;47.946;10.394;2022-07-30T04:47:06;4.15;;;2.92;;
18013;SDS011;9132;47.946;10.394;2022-07-30T04:49:33;3.30;;;3.00;;
18013;SDS011;9132;47.946;10.394;2022-07-30T04:52:02;3.20;;;3.00;;
18013;SDS011;9132;47.946;10.394;2022-07-30T04:54:29;3.38;;;3.03;;
18013;SDS011;9132;47.946;10.394;2022-07-30T04:56:59;4.28;;;2.75;;
18013;SDS011;9132;47.946;10.394;2022-07-30T04:59:25;5.80;;;2.97;;
18013;SDS011;9132;47.946;10.394;2022-07-30T05:01:52;3.10;;;2.72;;
18013;SDS011;9132;47.946;10.394;2022-07-30T05:04:21;3.35;;;2.45;;
18013;SDS011;9132;47.946;10.394;2022-07-30T05:06:48;5.53;;;3.33;;
18013;SDS011;9132;47.946;10.394;2022-07-30T05:09:16;3.22;;;2.92;;
18013;SDS011;9132;47.946;10.394;2022-07-30T05:11:48;3.75;;;2.95;;
18013;SDS011;9132;47.946;10.394;2022-07-30T05:14:14;3.38;;;2.97;;
18013;SDS011;9132;47.946;10.394;2022-07-30T05:16:41;3.22;;;2.92;;
18013;SDS011;9132;47.946;10.394;2022-07-30T05:19:07;3.42;;;3.13;;
18013;SDS011;9132;47.946;10.394;2022-07-30T05:21:33;3.53;;;3.22;;
18013;SDS011;9132;47.946;10.394;2022-07-30T05:23:59;3.53;;;3.10;;
18013;SDS011;9132;47.946;10.394;2022-07-30T05:26:27;3.33;;;3.03;;
18013;SDS011;9132;47.946;10.394;2022-07-30T05:28:53;3.13;;;2.83;;
18013;SDS011;9132;47.946;10.394;2022-07-30T05:31:20;3.22;;;2.78;;
18013;SDS011;9132;47.946;10.394;2022-07-30T05:33:46;3.95;;;3.10;;
18013;SDS011;9132;47.946;10.394;2022-07-30T05:36:12;4.03;;;3.15;;
18013;SDS011;9132;47.946;10.394;2022-07-30T05:38:38;2.72;;;2.53;;
18013;SDS011;9132;47.946;10.394;2022-07-30T05:41:05;3.15;;;2.85;;
18013;SDS011;9132;47.946;10.394;2022-07-30T05:43:32;3.00;;;2.65;;
18013;SDS011;9132;47.946;10.394;2022-07-30T05:45:59;3.67;;;2.88;;
18013;SDS011;9132;47.946;10.394;2022-07-30T05:48:25;5.90;;;3.15;;
18013;SDS011;9132;47.946;10.394;2022-07-30T05:50:52;3.10;;;2.80;;
18013;SDS011;9132;47.946;10.394;2022-07-30T05:53:18;3.17;;;2.88;;
18013;SDS011;9132;47.946;10.394;2022-07-30T05:55:44;3.15;;;2.85;;
18013;SDS011;9132;47.946;10.394;2022-07-30T05:58:10;6.15;;;2.95;;
18013;SDS011;9132;47.946;10.394;2022-07-30T06:00:38;4.28;;;3.50;;
18013;SDS011;9132;47.946;10.394;2022-07-30T06:03:04;5.82;;;3.38;;
18013;SDS011;9132;47.946;10.394;2022-07-30T06:05:31;4.93;;;2.80;;
18013;SDS011;9132;47.946;10.394;2022-07-30T06:07:57;3.40;;;3.10;;
18013;SDS011;9132;47.946;10.394;2022-07-30T06:10:23;3.45;;;3.15;;
18013;SDS011;9132;47.946;10.394;2022-07-30T06:12:50;4.07;;;3.25;;
18013;SDS011;9132;47.946;10.394;2022-07-30T06:15:16;3.50;;;2.85;;
18013;SDS011;9132;47.946;10.394;2022-07-30T06:17:44;4.15;;;2.92;;
18013;SDS011;9132;47.946;10.394;2022-07-30T06:20:11;3.50;;;3.20;;
18013;SDS011;9132;47.946;10.394;2022-07-30T06:22:38;4.07;;;3.45;;
18013;SDS011;9132;47.946;10.394;2022-07-30T06:25:04;4.63;;;3.63;;
18013;SDS011;9132;47.946;10.394;2022-07-30T06:27:31;3.95;;;3.28;;
18013;SDS011;9132;47.946;10.394;2022-07-30T06:29:58;3.67;;;3.30;;
18013;SDS011;9132;47.946;10.394;2022-07-30T06:32:24;3.60;;;3.30;;
18013;SDS011;9132;47.946;10.394;2022-07-30T06:34:52;4.23;;;3.60;;
18013;SDS011;9132;47.946;10.394;2022-07-30T06:37:18;4.25;;;3.47;;
18013;SDS011;9132;47.946;10.394;2022-07-30T06:39:45;3.80;;;3.50;;
18013;SDS011;9132;47.946;10.394;2022-07-30T06:42:11;7.05;;;3.42;;
18013;SDS011;9132;47.946;10.394;2022-07-30T06:44:37;6.20;;;4.47;;
18013;SDS011;9132;47.946;10.394;2022-07-30T06:47:04;6.18;;;4.70;;
18013;SDS011;9132;47.946;10.394;2022-07-30T06:49:30;5.65;;;4.57;;
18013;SDS011;9132;47.946;10.394;2022-07-30T06:51:58;6.18;;;4.15;;
18013;SDS011;9132;47.946;10.394;2022-07-30T06:54:25;5.30;;;4.60;;
18013;SDS011;9132;47.946;10.394;2022-07-30T06:56:51;5.00;;;4.60;;
18013;SDS011;9132;47.946;10.394;2022-07-30T06:59:18;4.50;;;4.05;;
18013;SDS011;9132;47.946;10.394;2022-07-30T07:01:44;5.00;;;4.57;;
18013;SDS011;9132;47.946;10.394;2022-07-30T07:04:11;6.65;;;5.40;;
18013;SDS011;9132;47.946;10.394;2022-07-30T07:06:37;6.75;;;6.05;;
18013;SDS011;9132;47.946;10.394;2022-07-30T07:09:05;6.82;;;6.10;;
18013;SDS011;9132;47.946;10.394;2022-07-30T07:11:31;7.18;;;6.05;;
18013;SDS011;9132;47.946;10.394;2022-07-30T07:13:57;7.17;;;6.13;;
18013;SDS011;9132;47.946;10.394;2022-07-30T07:16:24;7.50;;;6.80;;
18013;SDS011;9132;47.946;10.394;2022-07-30T07:18:50;8.27;;;6.60;;
18013;SDS011;9132;47.946;10.394;2022-07-30T07:21:17;8.95;;;7.75;;
18013;SDS011;9132;47.946;10.394;2022-07-30T07:23:43;8.73;;;7.80;;
18013;SDS011;9132;47.946;10.394;2022-07-30T07:26:10;8.60;;;7.80;;
18013;SDS011;9132;47.946;10.394;2022-07-30T07:28:37;8.68;;;7.20;;
18013;SDS011;9132;47.946;10.394;2022-07-30T07:31:04;7.35;;;6.50;;
18013;SDS011;9132;47.946;10.394;2022-07-30T07:33:31;7.88;;;6.68;;
18013;SDS011;9132;47.946;10.394;2022-07-30T07:35:57;8.27;;;7.45;;
18013;SDS011;9132;47.946;10.394;2022-07-30T07:38:23;7.43;;;6.72;;
18013;SDS011;9132;47.946;10.394;2022-07-30T07:40:50;6.53;;;5.82;;
18013;SDS011;9132;47.946;10.394;2022-07-30T07:43:17;7.05;;;6.35;;
18013;SDS011;9132;47.946;10.394;2022-07-30T07:45:44;7.35;;;6.68;;
18013;SDS011;9132;47.946;10.394;2022-07-30T07:48:10;6.85;;;6.25;;
18013;SDS011;9132;47.946;10.394;2022-07-30T07:50:37;8.98;;;7.38;;
18013;SDS011;9132;47.946;10.394;2022-07-30T07:53:03;8.25;;;6.50;;
18013;SDS011;9132;47.946;10.394;2022-07-30T07:55:30;7.10;;;6.30;;
18013;SDS011;9132;47.946;10.394;2022-07-30T07:57:56;6.97;;;6.25;;
18013;SDS011;9132;47.946;10.394;2022-07-30T08:00:24;6.38;;;5.78;;
18013;SDS011;9132;47.946;10.394;2022-07-30T08:02:50;8.48;;;6.53;;
18013;SDS011;9132;47.946;10.394;2022-07-30T08:05:16;8.10;;;6.80;;
18013;SDS011;9132;47.946;10.394;2022-07-30T08:07:43;7.18;;;6.13;;
18013;SDS011;9132;47.946;10.394;2022-07-30T08:10:09;7.13;;;6.53;;
18013;SDS011;9132;47.946;10.394;2022-07-30T08:12:38;7.10;;;6.40;;
18013;SDS011;9132;47.946;10.394;2022-07-30T08:15:05;8.10;;;6.28;;
18013;SDS011;9132;47.946;10.394;2022-07-30T08:17:32;5.97;;;5.40;;
18013;SDS011;9132;47.946;10.394;2022-07-30T08:19:59;6.18;;;5.53;;
18013;SDS011;9132;47.946;10.394;2022-07-30T08:22:25;6.07;;;5.57;;
18013;SDS011;9132;47.946;10.394;2022-07-30T08:24:52;6.38;;;5.78;;
18013;SDS011;9132;47.946;10.394;2022-07-30T08:27:18;6.75;;;5.90;;
18013;SDS011;9132;47.946;10.394;2022-07-30T08:29:44;6.63;;;5.80;;
18013;SDS011;9132;47.946;10.394;2022-07-30T08:32:11;7.55;;;5.40;;
18013;SDS011;9132;47.946;10.394;2022-07-30T08:34:38;6.22;;;5.63;;
18013;SDS011;9132;47.946;10.394;2022-07-30T08:37:05;5.50;;;5.00;;
18013;SDS011;9132;47.946;10.394;2022-07-30T08:39:31;6.00;;;5.50;;
18013;SDS011;9132;47.946;10.394;2022-07-30T08:41:57;5.88;;;4.50;;
18013;SDS011;9132;47.946;10.394;2022-07-30T08:44:24;5.10;;;4.43;;
18013;SDS011;9132;47.946;10.394;2022-07-30T08:46:51;16.63;;;5.60;;
18013;SDS011;9132;47.946;10.394;2022-07-30T08:49:20;8.95;;;4.60;;
18013;SDS011;9132;47.946;10.394;2022-07-30T08:51:48;4.78;;;4.28;;
18013;SDS011;9132;47.946;10.394;2022-07-30T08:54:14;6.13;;;4.28;;
18013;SDS011;9132;47.946;10.394;2022-07-30T08:56:41;4.75;;;3.80;;
18013;SDS011;9132;47.946;10.394;2022-07-30T08:59:07;5.95;;;4.03;;
18013;SDS011;9132;47.946;10.394;2022-07-30T09:01:34;4.53;;;3.85;;
18013;SDS011;9132;47.946;10.394;2022-07-30T09:04:00;5.68;;;4.70;;
18013;SDS011;9132;47.946;10.394;2022-07-30T09:06:26;5.10;;;3.95;;
18013;SDS011;9132;47.946;10.394;2022-07-30T09:08:54;4.65;;;3.95;;
18013;SDS011;9132;47.946;10.394;2022-07-30T09:11:20;4.85;;;3.75;;
18013;SDS011;9132;47.946;10.394;2022-07-30T09:13:47;4.68;;;3.67;;
18013;SDS011;9132;47.946;10.394;2022-07-30T09:16:18;4.75;;;3.90;;
18013;SDS011;9132;47.946;10.394;2022-07-30T09:18:45;4.15;;;3.72;;
18013;SDS011;9132;47.946;10.394;2022-07-30T09:21:15;3.65;;;2.83;;
18013;SDS011;9132;47.946;10.394;2022-07-30T09:23:55;3.35;;;2.78;;
18013;SDS011;9132;47.946;10.394;2022-07-30T09:26:21;3.58;;;3.13;;
18013;SDS011;9132;47.946;10.394;2022-07-30T09:28:47;4.10;;;3.30;;
18013;SDS011;9132;47.946;10.394;2022-07-30T09:31:13;4.00;;;3.60;;
18013;SDS011;9132;47.946;10.394;2022-07-30T09:33:41;6.13;;;4.13;;
18013;SDS011;9132;47.946;10.394;2022-07-30T09:36:08;7.50;;;3.28;;
18013;SDS011;9132;47.946;10.394;2022-07-30T09:38:42;4.10;;;3.53;;
18013;SDS011;9132;47.946;10.394;2022-07-30T09:41:10;3.42;;;3.15;;
18013;SDS011;9132;47.946;10.394;2022-07-30T09:43:43;4.28;;;3.15;;
18013;SDS011;9132;47.946;10.394;2022-07-30T09:46:10;3.58;;;3.03;;
18013;SDS011;9132;47.946;10.394;2022-07-30T09:48:36;4.32;;;2.58;;
18013;SDS011;9132;47.946;10.394;2022-07-30T09:51:03;5.38;;;2.97;;
18013;SDS011;9132;47.946;10.394;2022-07-30T09:53:29;6.20;;;3.22;;
18013;SDS011;9132;47.946;10.394;2022-07-30T09:55:56;6.10;;;2.78;;
18013;SDS011;9132;47.946;10.394;2022-07-30T09:58:24;2.47;;;2.28;;
18013;SDS011;9132;47.946;10.394;2022-07-30T10:01:02;4.07;;;2.63;;
18013;SDS011;9132;47.946;10.394;2022-07-30T10:03:28;5.20;;;2.60;;
18013;SDS011;9132;47.946;10.394;2022-07-30T10:05:56;4.25;;;2.40;;
18013;SDS011;9132;47.946;10.394;2022-07-30T10:08:37;2.80;;;2.17;;
18013;SDS011;9132;47.946;10.394;2022-07-30T10:11:03;2.92;;;2.00;;
18013;SDS011;9132;47.946;10.394;2022-07-30T10:13:31;3.95;;;2.35;;
18013;SDS011;9132;47.946;10.394;2022-07-30T10:15:58;4.03;;;2.40;;
18013;SDS011;9132;47.946;10.394;2022-07-30T10:18:25;2.80;;;2.38;;
18013;SDS011;9132;47.946;10.394;2022-07-30T10:20:52;2.78;;;2.20;;
18013;SDS011;9132;47.946;10.394;2022-07-30T10:23:18;4.03;;;2.83;;
18013;SDS011;9132;47.946;10.394;2022-07-30T10:25:45;2.83;;;2.47;;
18013;SDS011;9132;47.946;10.394;2022-07-30T10:28:12;3.80;;;2.70;;
18013;SDS011;9132;47.946;10.394;2022-07-30T10:30:40;2.60;;;2.40;;
18013;SDS011;9132;47.946;10.394;2022-07-30T10:33:07;2.20;;;2.00;;
18013;SDS011;9132;47.946;10.394;2022-07-30T10:35:33;2.83;;;2.42;;
18013;SDS011;9132;47.946;10.394;2022-07-30T10:38:00;3.78;;;2.70;;
18013;SDS011;9132;47.946;10.394;2022-07-30T10:40:28;4.80;;;2.97;;
18013;SDS011;9132;47.946;10.394;2022-07-30T10:45:49;3.30;;;2.47;;
18013;SDS011;9132;47.946;10.394;2022-07-30T10:48:18;2.95;;;2.40;;
18013;SDS011;9132;47.946;10.394;2022-07-30T10:50:49;3.80;;;2.03;;
18013;SDS011;9132;47.946;10.394;2022-07-30T10:53:30;3.00;;;2.58;;
18013;SDS011;9132;47.946;10.394;2022-07-30T10:56:09;4.70;;;2.40;;
18013;SDS011;9132;47.946;10.394;2022-07-30T10:58:40;3.80;;;2.40;;
18013;SDS011;9132;47.946;10.394;2022-07-30T11:01:23;2.78;;;2.25;;
18013;SDS011;9132;47.946;10.394;2022-07-30T11:06:30;2.20;;;2.00;;
18013;SDS011;9132;47.946;10.394;2022-07-30T11:08:56;3.28;;;2.45;;
18013;SDS011;9132;47.946;10.394;2022-07-30T11:11:42;3.05;;;1.90;;
18013;SDS011;9132;47.946;10.394;2022-07-30T11:14:09;3.50;;;2.15;;
18013;SDS011;9132;47.946;10.394;2022-07-30T11:16:57;6.13;;;2.85;;
18013;SDS011;9132;47.946;10.394;2022-07-30T11:19:24;4.22;;;2.35;;
18013;SDS011;9132;47.946;10.394;2022-07-30T11:24:42;4.25;;;2.58;;
18013;SDS011;9132;47.946;10.394;2022-07-30T11:27:08;2.75;;;2.55;;
18013;SDS011;9132;47.946;10.394;2022-07-30T11:29:36;4.80;;;2.70;;
18013;SDS011;9132;47.946;10.394;2022-07-30T11:32:23;2.95;;;2.65;;
18013;SDS011;9132;47.946;10.394;2022-07-30T11:34:50;4.07;;;2.47;;
18013;SDS011;9132;47.946;10.394;2022-07-30T11:37:16;3.45;;;2.55;;
18013;SDS011;9132;47.946;10.394;2022-07-30T11:42:29;8.55;;;2.80;;
18013;SDS011;9132;47.946;10.394;2022-07-30T11:44:59;3.88;;;2.35;;
18013;SDS011;9132;47.946;10.394;2022-07-30T11:47:45;3.08;;;2.40;;
18013;SDS011;9132;47.946;10.394;2022-07-30T11:50:15;2.50;;;2.30;;
18013;SDS011;9132;47.946;10.394;2022-07-30T11:52:42;5.32;;;2.47;;
18013;SDS011;9132;47.946;10.394;2022-07-30T11:55:08;3.30;;;2.30;;
18013;SDS011;9132;47.946;10.394;2022-07-30T11:57:40;4.25;;;2.85;;
18013;SDS011;9132;47.946;10.394;2022-07-30T12:00:07;4.28;;;2.53;;
18013;SDS011;9132;47.946;10.394;2022-07-30T12:02:33;3.92;;;3.10;;
18013;SDS011;9132;47.946;10.394;2022-07-30T12:05:01;2.47;;;2.28;;
18013;SDS011;9132;47.946;10.394;2022-07-30T12:07:28;2.50;;;2.30;;
18013;SDS011;9132;47.946;10.394;2022-07-30T12:12:36;3.08;;;2.13;;
18013;SDS011;9132;47.946;10.394;2022-07-30T12:15:02;2.63;;;2.42;;
18013;SDS011;9132;47.946;10.394;2022-07-30T12:17:39;3.55;;;2.75;;
18013;SDS011;9132;47.946;10.394;2022-07-30T12:20:12;2.70;;;2.20;;
18013;SDS011;9132;47.946;10.394;2022-07-30T12:22:38;2.95;;;2.20;;
18013;SDS011;9132;47.946;10.394;2022-07-30T12:25:05;2.42;;;2.22;;
18013;SDS011;9132;47.946;10.394;2022-07-30T12:27:31;2.40;;;2.10;;
18013;SDS011;9132;47.946;10.394;2022-07-30T12:29:58;3.90;;;2.50;;
18013;SDS011;9132;47.946;10.394;2022-07-30T12:32:24;2.53;;;2.30;;
18013;SDS011;9132;47.946;10.394;2022-07-30T12:34:54;3.97;;;2.17;;
18013;SDS011;9132;47.946;10.394;2022-07-30T12:37:22;3.75;;;2.03;;
18013;SDS011;9132;47.946;10.394;2022-07-30T12:39:48;2.67;;;1.95;;
18013;SDS011;9132;47.946;10.394;2022-07-30T12:42:16;3.97;;;2.13;;
18013;SDS011;9132;47.946;10.394;2022-07-30T12:44:43;3.85;;;2.35;;
18013;SDS011;9132;47.946;10.394;2022-07-30T12:47:19;2.80;;;1.98;;
18013;SDS011;9132;47.946;10.394;2022-07-30T12:49:46;2.15;;;1.60;;
18013;SDS011;9132;47.946;10.394;2022-07-30T12:52:18;2.13;;;1.88;;
18013;SDS011;9132;47.946;10.394;2022-07-30T12:54:54;2.13;;;1.60;;
18013;SDS011;9132;47.946;10.394;2022-07-30T12:57:21;2.53;;;1.83;;
18013;SDS011;9132;47.946;10.394;2022-07-30T12:59:58;3.67;;;1.60;;
18013;SDS011;9132;47.946;10.394;2022-07-30T13:02:29;2.67;;;1.60;;
18013;SDS011;9132;47.946;10.394;2022-07-30T13:04:55;3.53;;;1.58;;
18013;SDS011;9132;47.946;10.394;2022-07-30T13:07:22;2.63;;;1.20;;
18013;SDS011;9132;47.946;10.394;2022-07-30T13:09:58;1.50;;;1.40;;
18013;SDS011;9132;47.946;10.394;2022-07-30T13:12:30;2.88;;;1.63;;
18013;SDS011;9132;47.946;10.394;2022-07-30T13:14:56;3.33;;;1.30;;
18013;SDS011;9132;47.946;10.394;2022-07-30T13:17:23;3.17;;;1.65;;
18013;SDS011;9132;47.946;10.394;2022-07-30T13:19:49;2.38;;;1.50;;
18013;SDS011;9132;47.946;10.394;2022-07-30T13:22:15;1.45;;;1.30;;
18013;SDS011;9132;47.946;10.394;2022-07-30T13:24:42;2.03;;;1.27;;
18013;SDS011;9132;47.946;10.394;2022-07-30T13:27:09;1.35;;;1.25;;
18013;SDS011;9132;47.946;10.394;2022-07-30T13:29:36;2.85;;;1.48;;
18013;SDS011;9132;47.946;10.394;2022-07-30T13:32:02;2.22;;;1.48;;
18013;SDS011;9132;47.946;10.394;2022-07-30T13:34:28;2.42;;;1.42;;
18013;SDS011;9132;47.946;10.394;2022-07-30T13:36:54;1.92;;;1.30;;
18013;SDS011;9132;47.946;10.394;2022-07-30T13:39:21;2.25;;;1.50;;
18013;SDS011;9132;47.946;10.394;2022-07-30T13:41:47;2.67;;;1.33;;
18013;SDS011;9132;47.946;10.394;2022-07-30T13:44:15;2.55;;;1.30;;
18013;SDS011;9132;47.946;10.394;2022-07-30T13:46:41;1.45;;;1.20;;
18013;SDS011;9132;47.946;10.394;2022-07-30T13:49:08;1.77;;;1.25;;
18013;SDS011;9132;47.946;10.394;2022-07-30T13:51:34;2.17;;;1.40;;
18013;SDS011;9132;47.946;10.394;2022-07-30T13:54:01;3.63;;;1.60;;
18013;SDS011;9132;47.946;10.394;2022-07-30T13:56:28;2.78;;;1.50;;
18013;SDS011;9132;47.946;10.394;2022-07-30T13:58:54;2.33;;;1.43;;
18013;SDS011;9132;47.946;10.394;2022-07-30T14:01:22;2.50;;;1.50;;
18013;SDS011;9132;47.946;10.394;2022-07-30T14:03:48;2.47;;;1.50;;
18013;SDS011;9132;47.946;10.394;2022-07-30T14:06:14;2.65;;;1.30;;
18013;SDS011;9132;47.946;10.394;2022-07-30T14:08:41;1.65;;;1.20;;
18013;SDS011;9132;47.946;10.394;2022-07-30T14:11:07;1.42;;;1.10;;
18013;SDS011;9132;47.946;10.394;2022-07-30T14:13:33;3.22;;;1.67;;
18013;SDS011;9132;47.946;10.394;2022-07-30T14:16:00;3.95;;;1.52;;
18013;SDS011;9132;47.946;10.394;2022-07-30T14:18:27;2.58;;;1.52;;
18013;SDS011;9132;47.946;10.394;2022-07-30T14:20:54;4.40;;;1.40;;
18013;SDS011;9132;47.946;10.394;2022-07-30T14:23:20;2.28;;;1.55;;
18013;SDS011;9132;47.946;10.394;2022-07-30T14:25:46;2.47;;;1.50;;
18013;SDS011;9132;47.946;10.394;2022-07-30T14:28:13;1.20;;;1.10;;
18013;SDS011;9132;47.946;10.394;2022-07-30T14:30:39;2.08;;;1.30;;
18013;SDS011;9132;47.946;10.394;2022-07-30T14:33:06;3.67;;;1.52;;
18013;SDS011;9132;47.946;10.394;2022-07-30T14:35:33;1.70;;;1.35;;
18013;SDS011;9132;47.946;10.394;2022-07-30T14:38:00;3.38;;;1.30;;
18013;SDS011;9132;47.946;10.394;2022-07-30T14:40:27;1.35;;;1.23;;
18013;SDS011;9132;47.946;10.394;2022-07-30T14:42:54;2.88;;;1.10;;
18013;SDS011;9132;47.946;10.394;2022-07-30T14:45:20;1.95;;;1.38;;
18013;SDS011;9132;47.946;10.394;2022-07-30T14:47:46;1.88;;;1.60;;
18013;SDS011;9132;47.946;10.394;2022-07-30T14:50:12;5.50;;;1.42;;
18013;SDS011;9132;47.946;10.394;2022-07-30T14:52:40;1.67;;;1.50;;
18013;SDS011;9132;47.946;10.394;2022-07-30T14:55:08;2.45;;;1.60;;
18013;SDS011;9132;47.946;10.394;2022-07-30T14:57:34;3.28;;;1.80;;
18013;SDS011;9132;47.946;10.394;2022-07-30T15:00:02;6.72;;;2.92;;
18013;SDS011;9132;47.946;10.394;2022-07-30T15:02:29;4.95;;;2.80;;
18013;SDS011;9132;47.946;10.394;2022-07-30T15:04:55;2.65;;;2.22;;